Time;durP1;ratioP1;P1;durP2;ratioP2;P2;SDS_P1;SDS_P2;PMS_P1;PMS_P2;Temp;Humidity;BMP_temperature;BMP_pressure;BME280_temperature;BME280_humidity;BME280_pressure;Samples;Min_cycle;Max_cycle;Signal;HPM_P1;HPM_P2
2021/08/31 10:15:45;;;;;;;4.63;3.30;;;14.70;99.90;;;;;;5138075;27;20474;-87
2021/08/31 10:18:11;;;;;;;4.63;3.60;;;14.90;99.90;;;;;;5121449;28;20227;-87
2021/08/31 10:20:48;;;;;;;4.60;3.23;;;15.00;99.90;;;;;;5137409;28;20642;-87
2021/08/31 10:23:22;;;;;;;5.90;3.90;;;15.10;99.90;;;;;;5136462;28;20231;-86
2021/08/31 10:25:48;;;;;;;4.97;4.13;;;15.30;99.90;;;;;;5135873;28;20179;-87
2021/08/31 10:28:28;;;;;;;3.97;3.57;;;15.50;99.90;;;;;;5135444;28;20702;-87
2021/08/31 10:30:56;;;;;;;2.77;2.57;;;15.70;99.90;;;;;;5135320;28;20163;-87
2021/08/31 10:33:34;;;;;;;4.37;3.70;;;15.80;99.90;;;;;;5137206;28;20196;-88
2021/08/31 10:36:03;;;;;;;5.80;3.70;;;16.10;99.90;;;;;;5139124;28;20178;-88
2021/08/31 10:38:44;;;;;;;5.50;3.67;;;16.30;99.90;;;;;;5146591;28;20267;-88
2021/08/31 10:41:31;;;;;;;6.50;3.87;;;16.50;99.90;;;;;;5115524;28;20175;-88
2021/08/31 10:43:57;;;;;;;4.50;3.57;;;16.80;99.90;;;;;;5130340;28;20186;-86
2021/08/31 10:46:23;;;;;;;3.90;3.40;;;17.30;99.90;;;;;;5108444;28;20607;-89
2021/08/31 10:49:15;;;;;;;4.90;3.50;;;17.30;99.90;;;;;;5094298;28;20212;-89
2021/08/31 10:52:31;;;;;;;3.70;3.30;;;17.60;99.90;;;;;;5092601;28;20198;-88
2021/08/31 10:54:56;;;;;;;3.27;2.97;;;17.90;99.90;;;;;;5035828;28;20207;-88
2021/08/31 10:57:45;;;;;;;3.20;2.90;;;18.30;99.90;;;;;;5034866;28;20177;-88
2021/08/31 11:00:17;;;;;;;3.73;2.80;;;18.40;99.90;;;;;;5066414;28;20191;-88
2021/08/31 11:02:49;;;;;;;3.50;3.10;;;18.30;99.90;;;;;;5093103;28;20163;-88
2021/08/31 11:05:21;;;;;;;6.40;2.70;;;18.60;99.90;;;;;;5108639;28;20616;-88
2021/08/31 11:08:06;;;;;;;5.73;4.70;;;19.00;99.90;;;;;;5111956;28;20175;-88
2021/08/31 11:10:37;;;;;;;3.53;2.60;;;19.00;99.90;;;;;;5114485;28;20175;-89
2021/08/31 11:13:12;;;;;;;4.07;3.27;;;18.90;99.90;;;;;;5136213;28;20189;-87
2021/08/31 11:15:39;;;;;;;4.27;2.93;;;18.70;99.90;;;;;;5130332;28;20178;-87
2021/08/31 11:18:10;;;;;;;4.07;3.63;;;18.60;99.90;;;;;;5111690;28;20187;-87
2021/08/31 11:20:41;;;;;;;5.60;4.10;;;17.90;99.90;;;;;;5111708;28;20172;-88
2021/08/31 11:23:14;;;;;;;4.40;3.60;;;17.40;99.90;;;;;;5121755;28;20160;-88
2021/08/31 11:25:51;;;;;;;4.67;3.83;;;16.90;99.90;;;;;;5126606;28;20175;-88
2021/08/31 11:28:28;;;;;;;4.17;3.10;;;16.60;99.90;;;;;;5119764;28;20254;-87
2021/08/31 11:31:05;;;;;;;6.80;3.53;;;16.30;99.90;;;;;;5119376;28;20177;-88
2021/08/31 11:33:36;;;;;;;5.60;3.87;;;16.00;99.90;;;;;;5119627;28;20183;-88
2021/08/31 11:36:11;;;;;;;4.20;3.80;;;15.90;99.90;;;;;;5120160;28;20174;-88
2021/08/31 11:38:51;;;;;;;6.93;5.00;;;15.60;99.90;;;;;;5088000;28;20233;-88
2021/08/31 11:41:21;;;;;;;3.93;3.47;;;15.60;99.90;;;;;;5128595;28;20202;-88
2021/08/31 11:43:54;;;;;;;4.73;2.80;;;15.50;99.90;;;;;;5125706;28;20159;-87
2021/08/31 11:46:34;;;;;;;4.00;3.03;;;15.60;99.90;;;;;;5102988;28;20182;-89
2021/08/31 11:49:17;;;;;;;4.23;3.03;;;15.50;99.90;;;;;;5098252;28;20208;-87
2021/08/31 11:51:56;;;;;;;5.57;3.60;;;15.60;99.90;;;;;;5098281;28;20190;-88
2021/08/31 11:54:24;;;;;;;5.77;3.50;;;15.70;99.90;;;;;;5098430;28;20240;-88
2021/08/31 11:57:01;;;;;;;3.67;2.83;;;15.70;99.90;;;;;;5098486;28;20270;-88
2021/08/31 11:59:48;;;;;;;4.67;3.37;;;15.60;99.90;;;;;;5101092;28;20613;-87
2021/08/31 12:02:21;;;;;;;4.47;3.13;;;15.60;99.90;;;;;;5106480;28;20176;-87
2021/08/31 12:04:57;;;;;;;3.47;3.17;;;15.60;99.90;;;;;;5104155;28;20180;-87
2021/08/31 12:07:28;;;;;;;4.17;3.20;;;15.70;99.90;;;;;;5105037;28;20710;-88
2021/08/31 12:10:00;;;;;;;3.80;3.40;;;15.60;99.90;;;;;;5100176;28;20636;-89
2021/08/31 12:12:27;;;;;;;6.80;3.30;;;15.50;99.90;;;;;;5098336;28;20177;-88
2021/08/31 12:14:54;;;;;;;4.10;3.03;;;15.40;99.90;;;;;;5112126;28;20239;-88
2021/08/31 12:17:32;;;;;;;4.70;3.50;;;15.30;99.90;;;;;;5105626;28;20191;-89
2021/08/31 12:20:24;;;;;;;3.83;3.10;;;15.40;99.90;;;;;;5115792;28;20180;-88
2021/08/31 12:22:54;;;;;;;3.97;3.17;;;15.40;99.90;;;;;;5102180;28;20249;-88
2021/08/31 12:25:22;;;;;;;4.57;3.37;;;15.50;99.90;;;;;;5097873;28;20247;-88
2021/08/31 12:35:44;;;;;;;3.67;3.20;;;;;;;;;;4995819;28;20643;-89
2021/08/31 12:38:28;;;;;;;5.73;3.37;;;;;;;;;;4995762;28;20203;-89
2021/08/31 12:43:23;;;;;;;6.23;3.50;;;;;;;;;;4997634;28;20179;-88
2021/08/31 12:45:50;;;;;;;9.03;3.23;;;;;;;;;;4996553;28;20211;-88
2021/08/31 12:48:19;;;;;;;4.03;3.30;;;;;;;;;;4996082;28;20195;-89
2021/08/31 12:51:04;;;;;;;3.43;2.93;;;16.90;99.90;;;;;;4996023;28;20196;-88
2021/08/31 12:53:38;;;;;;;3.73;2.73;;;;;;;;;;4996378;28;20175;-88
2021/08/31 12:56:10;;;;;;;3.90;2.80;;;17.20;99.90;;;;;;4996408;28;20180;-88
2021/08/31 12:58:43;;;;;;;3.10;2.80;;;17.90;99.90;;;;;;5006130;28;20219;-88
2021/08/31 13:01:13;;;;;;;3.20;2.87;;;;;;;;;;4996730;28;20184;-89
2021/08/31 13:03:47;;;;;;;5.70;2.60;;;17.20;99.90;;;;;;4996811;28;20188;-89
2021/08/31 13:06:36;;;;;;;3.23;2.53;;;16.70;99.90;;;;;;4995610;28;20172;-89
2021/08/31 13:09:12;;;;;;;3.03;2.47;;;16.50;99.90;;;;;;5000704;28;20180;-87
2021/08/31 13:11:44;;;;;;;3.50;2.57;;;16.30;99.90;;;;;;4978106;28;20176;-89
2021/08/31 13:14:14;;;;;;;3.73;2.80;;;15.90;99.90;;;;;;4976256;28;20662;-88
2021/08/31 13:16:51;;;;;;;4.67;2.90;;;15.80;99.90;;;;;;4991193;28;20258;-88
2021/08/31 13:19:20;;;;;;;3.57;2.37;;;15.80;99.90;;;;;;4996246;28;20286;-89
2021/08/31 13:21:47;;;;;;;4.50;2.50;;;15.90;99.90;;;;;;4995856;28;20548;-88
2021/08/31 13:24:13;;;;;;;6.07;2.73;;;15.90;99.90;;;;;;5002131;28;20195;-87
2021/08/31 13:26:40;;;;;;;2.93;2.63;;;16.10;99.90;;;;;;4999882;28;20179;-88
2021/08/31 13:29:07;;;;;;;4.57;2.93;;;16.40;99.90;;;;;;4995968;28;20202;-88
2021/08/31 13:31:34;;;;;;;4.53;2.63;;;16.40;99.90;;;;;;4997376;28;20179;-88
2021/08/31 13:34:00;;;;;;;3.30;3.00;;;16.60;99.90;;;;;;4996023;28;20219;-88
2021/08/31 13:36:26;;;;;;;5.73;2.83;;;;;;;;;;4995886;28;20175;-88
2021/08/31 13:38:52;;;;;;;3.90;2.80;;;16.90;99.90;;;;;;4997858;28;20523;-88
2021/08/31 13:41:19;;;;;;;3.57;2.80;;;16.90;99.90;;;;;;4996778;28;20177;-88
2021/08/31 13:43:45;;;;;;;4.77;3.10;;;17.10;99.90;;;;;;4997478;28;20179;-89
2021/08/31 13:46:11;;;;;;;5.37;3.10;;;17.20;99.90;;;;;;4997880;28;20176;-90
2021/08/31 13:48:37;;;;;;;3.50;3.10;;;17.60;99.90;;;;;;5000772;28;20202;-87
2021/08/31 13:51:03;;;;;;;5.07;2.80;;;17.90;99.90;;;;;;5004490;28;20198;-88
2021/08/31 13:53:28;;;;;;;4.83;2.70;;;19.50;99.90;;;;;;4998267;28;20329;-89
2021/08/31 13:55:54;;;;;;;6.13;2.60;;;19.70;99.90;;;;;;4999285;28;20240;-89
2021/08/31 13:58:21;;;;;;;5.70;2.50;;;20.20;99.90;;;;;;4999621;28;20206;-89
2021/08/31 14:00:47;;;;;;;8.13;2.77;;;20.00;99.90;;;;;;4998974;28;20171;-87
2021/08/31 14:03:13;;;;;;;2.97;2.43;;;19.30;99.90;;;;;;4996889;28;20180;-86
2021/08/31 14:05:40;;;;;;;4.43;2.53;;;18.60;99.90;;;;;;4998252;28;20638;-90
2021/08/31 14:08:07;;;;;;;4.00;2.70;;;18.20;99.90;;;;;;4997859;28;20208;-89
2021/08/31 14:10:33;;;;;;;4.53;2.93;;;17.90;99.90;;;;;;4995812;28;20263;-90
2021/08/31 14:13:00;;;;;;;2.83;2.37;;;17.70;99.90;;;;;;4995892;28;20191;-88
2021/08/31 14:15:26;;;;;;;4.47;2.30;;;18.00;99.90;;;;;;4996812;28;20307;-88
2021/08/31 14:17:52;;;;;;;2.07;1.77;;;19.30;99.90;;;;;;4997705;28;20187;-87
2021/08/31 14:20:18;;;;;;;2.23;2.03;;;19.40;99.90;;;;;;4996600;28;20200;-87
2021/08/31 14:22:44;;;;;;;2.43;1.97;;;20.20;99.90;;;;;;4995652;28;20721;-88
2021/08/31 14:25:10;;;;;;;2.20;2.00;;;20.70;99.90;;;;;;4995068;28;20587;-88
2021/08/31 14:27:36;;;;;;;2.73;2.00;;;20.50;99.90;;;;;;4996427;28;20176;-89
2021/08/31 14:30:02;;;;;;;2.43;2.10;;;20.20;99.90;;;;;;4994678;28;20215;-89
2021/08/31 14:32:28;;;;;;;6.60;2.23;;;19.50;99.90;;;;;;4994798;28;20188;-90
2021/08/31 14:34:53;;;;;;;4.10;2.30;;;18.90;99.90;;;;;;4995532;28;20218;-88
2021/08/31 14:37:19;;;;;;;5.13;2.50;;;18.40;99.90;;;;;;4996004;28;20184;-90
2021/08/31 14:39:45;;;;;;;4.43;2.80;;;18.20;99.90;;;;;;4995850;28;20199;-90
2021/08/31 14:42:11;;;;;;;4.00;2.40;;;18.70;99.90;;;;;;4995723;28;20194;-90
2021/08/31 14:44:37;;;;;;;4.90;2.40;;;19.40;99.90;;;;;;4995260;28;20634;-90
2021/08/31 14:47:03;;;;;;;3.43;2.67;;;19.80;99.90;;;;;;4997072;28;20179;-88
2021/08/31 14:49:29;;;;;;;2.57;2.37;;;20.10;99.90;;;;;;4997853;28;20207;-89
2021/08/31 14:51:54;;;;;;;2.83;2.40;;;20.40;99.90;;;;;;5002436;28;20214;-89
2021/08/31 14:54:20;;;;;;;2.23;1.97;;;20.40;99.90;;;;;;5002938;28;20235;-89
2021/08/31 14:56:49;;;;;;;3.60;2.30;;;20.50;99.90;;;;;;4994524;28;20175;-88
2021/08/31 14:59:21;;;;;;;2.43;2.20;;;20.50;99.90;;;;;;4994311;28;20203;-88
2021/08/31 15:01:48;;;;;;;6.03;2.60;;;20.00;99.90;;;;;;4996653;28;20183;-88
2021/08/31 15:04:14;;;;;;;3.60;2.77;;;19.50;99.90;;;;;;5000912;28;20179;-88
2021/08/31 15:06:40;;;;;;;2.57;2.33;;;19.00;99.90;;;;;;4998558;28;20270;-88
2021/08/31 15:09:06;;;;;;;2.80;2.50;;;18.60;99.90;;;;;;4998268;28;20294;-88
2021/08/31 15:11:33;;;;;;;2.90;2.60;;;18.20;99.90;;;;;;4999766;28;20194;-89
2021/08/31 15:13:59;;;;;;;3.17;2.87;;;17.90;99.90;;;;;;5000168;28;20203;-89
2021/08/31 15:16:25;;;;;;;4.87;3.50;;;17.70;99.90;;;;;;5008346;28;20636;-88
2021/08/31 15:18:51;;;;;;;3.93;3.10;;;17.60;99.90;;;;;;4999100;28;20250;-88
2021/08/31 15:21:17;;;;;;;4.10;2.90;;;17.40;99.90;;;;;;4999636;28;20238;-88
2021/08/31 15:23:45;;;;;;;5.23;2.70;;;17.30;99.90;;;;;;4998181;28;20179;-88
2021/08/31 15:26:11;;;;;;;3.00;2.33;;;17.30;99.90;;;;;;4998146;28;20678;-88
2021/08/31 15:28:37;;;;;;;3.80;2.57;;;17.10;99.90;;;;;;4997724;28;20201;-88
2021/08/31 15:31:02;;;;;;;5.30;2.73;;;16.90;99.90;;;;;;4997689;28;20705;-87
2021/08/31 15:33:28;;;;;;;4.20;3.17;;;16.80;99.90;;;;;;4997766;28;20192;-88
2021/08/31 15:35:54;;;;;;;7.53;4.27;;;16.70;99.90;;;;;;4998307;28;20224;-88
2021/08/31 15:38:20;;;;;;;5.43;4.20;;;16.60;99.90;;;;;;4999033;28;20196;-88
2021/08/31 15:40:45;;;;;;;4.23;3.57;;;16.50;99.90;;;;;;4998109;28;20175;-88
2021/08/31 15:43:11;;;;;;;4.70;3.10;;;16.40;99.90;;;;;;4998209;28;20559;-88
2021/08/31 15:45:39;;;;;;;5.03;3.03;;;16.40;99.90;;;;;;5000235;28;20187;-88
2021/08/31 15:48:05;;;;;;;6.57;2.77;;;16.60;99.90;;;;;;5003414;28;20200;-87
2021/08/31 15:50:30;;;;;;;3.07;2.73;;;16.70;99.90;;;;;;4999087;28;20656;-88
2021/08/31 15:52:56;;;;;;;3.53;2.57;;;16.80;99.90;;;;;;4998253;28;20531;-88
2021/08/31 15:55:22;;;;;;;5.10;3.07;;;16.80;99.90;;;;;;4999768;28;20191;-87
2021/08/31 15:57:47;;;;;;;3.87;2.80;;;16.60;99.90;;;;;;5017958;28;20175;-87
2021/08/31 16:00:13;;;;;;;3.77;3.00;;;16.60;99.90;;;;;;5018343;28;20191;-89
2021/08/31 16:02:39;;;;;;;3.40;3.07;;;16.50;99.90;;;;;;5010031;28;20192;-88
2021/08/31 16:05:05;;;;;;;3.47;3.13;;;16.40;99.90;;;;;;4998123;28;20626;-88
2021/08/31 16:07:31;;;;;;;2.97;2.60;;;16.20;99.90;;;;;;4998657;28;20242;-87
2021/08/31 16:09:58;;;;;;;3.30;2.83;;;16.10;99.90;;;;;;4999821;28;20204;-86
2021/08/31 16:12:23;;;;;;;3.50;3.00;;;16.00;99.90;;;;;;4999668;28;20315;-87
2021/08/31 16:14:49;;;;;;;5.97;2.87;;;16.00;99.90;;;;;;4997426;28;20681;-87
2021/08/31 16:17:14;;;;;;;4.07;3.43;;;15.90;99.90;;;;;;4999690;28;20629;-87
2021/08/31 16:19:40;;;;;;;4.63;3.03;;;15.80;99.90;;;;;;5001995;28;20195;-87
2021/08/31 16:22:06;;;;;;;5.37;3.77;;;15.70;99.90;;;;;;5000839;28;20179;-86
2021/08/31 16:24:32;;;;;;;4.97;3.67;;;15.70;99.90;;;;;;4998915;28;20184;-86
2021/08/31 16:26:58;;;;;;;4.83;4.00;;;15.60;99.90;;;;;;4999412;28;20606;-86
2021/08/31 16:29:24;;;;;;;4.57;3.50;;;15.50;99.90;;;;;;5000490;28;20199;-86
2021/08/31 16:31:49;;;;;;;5.70;4.43;;;15.50;99.90;;;;;;5002069;28;20190;-86
2021/08/31 16:34:15;;;;;;;3.63;3.20;;;15.50;99.90;;;;;;4999350;28;20222;-87
2021/08/31 16:36:41;;;;;;;4.30;3.67;;;15.50;99.90;;;;;;5002013;28;20176;-86
2021/08/31 16:39:07;;;;;;;3.77;3.40;;;15.50;99.90;;;;;;4999857;28;20565;-86
2021/08/31 16:41:32;;;;;;;6.83;4.30;;;15.50;99.90;;;;;;4999477;28;20179;-88
2021/08/31 16:43:58;;;;;;;3.80;3.40;;;15.50;99.90;;;;;;4997773;28;20573;-88
2021/08/31 16:46:24;;;;;;;4.30;3.83;;;15.50;99.90;;;;;;4997965;28;20180;-87
2021/08/31 16:48:49;;;;;;;4.57;2.93;;;15.50;99.90;;;;;;4998854;28;20210;-86
2021/08/31 16:51:15;;;;;;;4.03;2.90;;;15.50;99.90;;;;;;4999797;28;20184;-86
2021/08/31 16:53:42;;;;;;;6.70;4.13;;;15.60;99.90;;;;;;4999150;28;20183;-87
2021/08/31 16:56:09;;;;;;;6.57;3.50;;;15.60;99.90;;;;;;4999371;28;20172;-86
2021/08/31 16:58:35;;;;;;;5.17;3.70;;;15.60;99.90;;;;;;4998467;28;20235;-87
2021/08/31 17:01:01;;;;;;;5.83;3.50;;;15.60;99.90;;;;;;4999211;28;20264;-86
2021/08/31 17:03:27;;;;;;;4.50;3.30;;;15.60;99.90;;;;;;4998841;28;20226;-86
2021/08/31 17:05:54;;;;;;;4.03;3.43;;;15.60;99.90;;;;;;4999738;28;20181;-86
2021/08/31 17:08:20;;;;;;;4.97;3.93;;;15.60;99.90;;;;;;5002132;28;20212;-86
2021/08/31 17:10:49;;;;;;;6.77;3.90;;;;;;;;;;5001491;28;20171;-86
2021/08/31 17:13:14;;;;;;;4.50;3.53;;;15.60;99.90;;;;;;4998366;28;20195;-86
2021/08/31 17:15:40;;;;;;;4.17;3.37;;;;;;;;;;5000099;28;20207;-87
2021/08/31 17:18:06;;;;;;;5.43;4.37;;;15.50;99.90;;;;;;4997066;28;20207;-86
2021/08/31 17:20:32;;;;;;;5.73;4.20;;;15.50;99.90;;;;;;4997007;28;20213;-87
2021/08/31 17:22:58;;;;;;;5.17;3.73;;;15.40;99.90;;;;;;5007665;28;20237;-86
2021/08/31 17:25:24;;;;;;;7.03;4.03;;;15.40;99.90;;;;;;5001092;28;20215;-86
2021/08/31 17:27:50;;;;;;;4.07;3.17;;;15.30;99.90;;;;;;5001752;28;20189;-87
2021/08/31 17:30:16;;;;;;;4.50;3.63;;;15.30;99.90;;;;;;5001250;28;20616;-86
2021/08/31 17:32:42;;;;;;;4.93;3.70;;;15.30;99.90;;;;;;5001322;28;20250;-87
2021/08/31 17:35:08;;;;;;;4.73;3.87;;;15.20;99.90;;;;;;5006206;28;20259;-86
2021/08/31 17:37:35;;;;;;;4.37;3.43;;;15.30;99.90;;;;;;5007971;28;20183;-87
2021/08/31 17:40:04;;;;;;;5.27;3.90;;;15.20;99.90;;;;;;5008562;28;20200;-87
2021/08/31 17:42:30;;;;;;;5.20;3.70;;;15.20;99.90;;;;;;5010295;28;20180;-86
2021/08/31 17:44:56;;;;;;;4.03;3.60;;;15.20;99.90;;;;;;5010204;28;20195;-86
2021/08/31 17:47:21;;;;;;;5.37;3.53;;;15.10;99.90;;;;;;5013932;28;20203;-86
2021/08/31 17:49:47;;;;;;;5.00;4.20;;;;;;;;;;5015514;28;20227;-87
2021/08/31 17:52:18;;;;;;;5.20;4.23;;;15.10;99.90;;;;;;4997951;28;20211;-87
2021/08/31 17:54:48;;;;;;;7.73;4.30;;;15.10;99.90;;;;;;4997121;28;20620;-87
2021/08/31 17:57:14;;;;;;;7.00;4.07;;;15.00;99.90;;;;;;4997137;28;20221;-87
2021/08/31 17:59:56;;;;;;;6.43;4.00;;;15.00;99.90;;;;;;4997433;28;20203;-87
2021/08/31 18:02:21;;;;;;;4.70;3.93;;;14.90;99.90;;;;;;4998123;28;20167;-87
2021/08/31 18:04:47;;;;;;;5.63;4.13;;;14.90;99.90;;;;;;4997292;28;20195;-87
2021/08/31 18:07:13;;;;;;;6.50;4.13;;;14.90;99.90;;;;;;4999698;28;20278;-87
2021/08/31 18:09:38;;;;;;;6.43;4.60;;;14.80;99.90;;;;;;4998617;28;20234;-87
2021/08/31 18:12:04;;;;;;;6.37;5.30;;;14.80;99.90;;;;;;5000577;28;20254;-87
2021/08/31 18:14:30;;;;;;;8.83;5.53;;;14.80;99.90;;;;;;4999599;28;20204;-87
2021/08/31 18:16:56;;;;;;;6.40;5.60;;;14.80;99.90;;;;;;4999589;28;20268;-86
2021/08/31 18:19:21;;;;;;;5.70;4.70;;;14.70;99.90;;;;;;4999525;28;20195;-87
2021/08/31 18:21:47;;;;;;;5.60;5.00;;;14.60;99.90;;;;;;4998996;28;20183;-87
2021/08/31 18:24:12;;;;;;;5.43;4.43;;;14.60;99.90;;;;;;4999311;28;20183;-87
2021/08/31 18:26:38;;;;;;;6.33;4.73;;;14.50;99.90;;;;;;4997911;28;20325;-87
2021/08/31 18:29:04;;;;;;;12.80;8.07;;;14.50;99.90;;;;;;4997385;28;20257;-87
2021/08/31 18:31:29;;;;;;;8.27;5.80;;;14.40;99.90;;;;;;4996722;28;20183;-87
2021/08/31 18:33:55;;;;;;;8.70;6.03;;;14.40;99.90;;;;;;4997543;28;20207;-87
2021/08/31 18:36:21;;;;;;;7.90;5.40;;;14.40;99.90;;;;;;4999372;28;20175;-87
2021/08/31 18:38:47;;;;;;;5.30;4.70;;;14.30;99.90;;;;;;5001331;28;20210;-87
2021/08/31 18:41:14;;;;;;;6.57;5.03;;;14.40;99.90;;;;;;5001352;28;20180;-86
2021/08/31 18:43:39;;;;;;;6.90;5.07;;;14.30;99.90;;;;;;5001222;28;20552;-87
2021/08/31 18:46:05;;;;;;;6.27;4.50;;;14.30;99.90;;;;;;5004619;28;20187;-87
2021/08/31 18:48:31;;;;;;;5.83;4.00;;;14.30;99.90;;;;;;4999195;28;20211;-87
2021/08/31 18:50:56;;;;;;;4.93;4.33;;;14.30;99.90;;;;;;4999552;28;20191;-86
2021/08/31 18:53:22;;;;;;;5.40;4.00;;;14.30;99.90;;;;;;5002454;28;20246;-87
2021/08/31 18:55:48;;;;;;;6.33;4.80;;;14.30;99.90;;;;;;5002007;28;20203;-88
2021/08/31 18:58:14;;;;;;;6.03;4.23;;;14.30;99.90;;;;;;5001252;28;20218;-87
2021/08/31 19:00:40;;;;;;;6.40;4.50;;;14.20;99.90;;;;;;5001107;28;20179;-87
2021/08/31 19:03:05;;;;;;;8.23;4.93;;;14.20;99.90;;;;;;5001683;28;20650;-87
2021/08/31 19:05:31;;;;;;;5.47;4.63;;;14.20;99.90;;;;;;5000958;28;20190;-88
2021/08/31 19:07:57;;;;;;;5.97;4.40;;;14.20;99.90;;;;;;5000348;28;20630;-87
2021/08/31 19:10:23;;;;;;;5.73;4.63;;;14.20;99.90;;;;;;5000930;28;20194;-87
2021/08/31 19:12:48;;;;;;;5.37;4.53;;;14.20;99.90;;;;;;4999884;28;20649;-87
2021/08/31 19:15:15;;;;;;;6.80;5.03;;;14.10;99.90;;;;;;5001504;28;20203;-87
2021/08/31 19:17:41;;;;;;;6.63;4.43;;;14.10;99.90;;;;;;5000067;28;20214;-87
2021/08/31 19:20:08;;;;;;;6.87;4.43;;;14.00;99.90;;;;;;5001598;28;20196;-88
2021/08/31 19:22:34;;;;;;;8.63;5.03;;;14.00;99.90;;;;;;5006802;28;20187;-87
2021/08/31 19:25:00;;;;;;;7.07;4.77;;;13.90;99.90;;;;;;5003269;28;20210;-88
2021/08/31 19:27:26;;;;;;;6.10;5.13;;;13.90;99.90;;;;;;5009926;28;20279;-87
2021/08/31 19:29:51;;;;;;;7.43;6.27;;;13.90;99.90;;;;;;5009865;28;20183;-88
2021/08/31 19:32:17;;;;;;;7.20;5.57;;;13.90;99.90;;;;;;5001774;28;20183;-87
2021/08/31 19:34:43;;;;;;;6.73;5.80;;;13.80;99.90;;;;;;4999869;28;20697;-87
2021/08/31 19:37:08;;;;;;;7.10;5.63;;;13.80;99.90;;;;;;5000352;28;20574;-87
2021/08/31 19:39:37;;;;;;;8.60;6.87;;;13.80;99.90;;;;;;5000016;28;20223;-89
2021/08/31 19:42:03;;;;;;;8.07;6.63;;;13.80;99.90;;;;;;5000317;28;20190;-87
2021/08/31 19:44:28;;;;;;;9.90;7.50;;;13.80;99.90;;;;;;5000813;28;20199;-87
2021/08/31 19:46:54;;;;;;;10.70;8.33;;;13.70;99.90;;;;;;4999835;28;20665;-87
2021/08/31 19:49:20;;;;;;;9.37;7.40;;;13.80;99.90;;;;;;4999084;28;20226;-87
2021/08/31 19:51:45;;;;;;;10.90;8.40;;;13.80;99.90;;;;;;5000055;28;20188;-86
2021/08/31 19:54:11;;;;;;;14.23;10.10;;;13.80;99.90;;;;;;5001235;28;20578;-87
2021/08/31 19:56:37;;;;;;;15.77;11.90;;;13.70;99.90;;;;;;5001613;28;20226;-87
2021/08/31 19:59:03;;;;;;;30.90;21.37;;;13.70;99.90;;;;;;5001147;28;20206;-87
2021/08/31 20:01:28;;;;;;;31.43;21.87;;;13.70;99.90;;;;;;4999967;28;20250;-87
2021/08/31 20:03:54;;;;;;;17.27;12.80;;;13.70;99.90;;;;;;4997859;28;20192;-87
2021/08/31 20:06:20;;;;;;;16.70;12.53;;;13.70;99.90;;;;;;4999759;28;20188;-87
2021/08/31 20:08:46;;;;;;;11.73;8.40;;;13.60;99.90;;;;;;4998315;28;20203;-87
2021/08/31 20:11:12;;;;;;;15.07;10.93;;;13.60;99.90;;;;;;4998036;28;20318;-87
2021/08/31 20:13:39;;;;;;;11.07;7.97;;;13.60;99.90;;;;;;4999553;28;20586;-87
2021/08/31 20:16:04;;;;;;;14.87;9.33;;;13.50;99.90;;;;;;4999552;28;20176;-87
2021/08/31 20:18:30;;;;;;;14.50;9.13;;;13.50;99.90;;;;;;5000536;28;20219;-87
2021/08/31 20:20:56;;;;;;;9.33;7.70;;;13.50;99.90;;;;;;5003707;28;20275;-87
2021/08/31 20:23:23;;;;;;;9.33;7.43;;;13.40;99.90;;;;;;5002146;28;20168;-87
2021/08/31 20:25:50;;;;;;;10.93;6.93;;;13.40;99.90;;;;;;4998608;28;20661;-88
2021/08/31 20:28:16;;;;;;;6.80;6.07;;;13.40;99.90;;;;;;4998748;28;20199;-89
2021/08/31 20:30:48;;;;;;;10.37;5.77;;;13.30;99.90;;;;;;4999737;28;20210;-88
2021/08/31 20:33:14;;;;;;;8.37;6.10;;;13.30;99.90;;;;;;4999033;28;20222;-88
2021/08/31 20:35:39;;;;;;;7.83;5.43;;;13.30;99.90;;;;;;4999373;28;20271;-87
2021/08/31 20:38:05;;;;;;;8.43;6.17;;;13.20;99.90;;;;;;4997902;28;20539;-88
2021/08/31 20:40:31;;;;;;;11.10;6.27;;;13.20;99.90;;;;;;4999365;28;20269;-88
2021/08/31 20:42:57;;;;;;;8.07;6.27;;;13.20;99.90;;;;;;4999094;28;20176;-88
2021/08/31 20:45:23;;;;;;;8.10;6.00;;;13.20;99.90;;;;;;4999133;28;20176;-87
2021/08/31 20:47:49;;;;;;;9.20;5.70;;;13.10;99.90;;;;;;4997712;28;20175;-88
2021/08/31 20:50:16;;;;;;;9.20;6.60;;;13.10;99.90;;;;;;4997818;28;20183;-88
2021/08/31 20:52:44;;;;;;;8.43;6.60;;;13.10;99.90;;;;;;4997114;28;20208;-88
2021/08/31 20:55:10;;;;;;;9.30;6.30;;;13.10;99.90;;;;;;4998540;28;20230;-87
2021/08/31 20:57:36;;;;;;;13.37;7.20;;;13.00;99.90;;;;;;4998477;28;20175;-87
2021/08/31 21:00:04;;;;;;;8.80;6.70;;;12.90;99.90;;;;;;4996690;28;20734;-88
2021/08/31 21:02:30;;;;;;;9.57;7.43;;;12.90;99.90;;;;;;4999759;28;20171;-88
2021/08/31 21:04:56;;;;;;;11.67;7.10;;;12.90;99.90;;;;;;4997575;28;20179;-88
2021/08/31 21:07:21;;;;;;;8.00;6.33;;;12.90;99.90;;;;;;5004473;28;20732;-87
2021/08/31 21:09:47;;;;;;;10.30;6.80;;;12.80;99.90;;;;;;4998408;28;20719;-88
2021/08/31 21:12:15;;;;;;;9.13;6.60;;;12.80;99.90;;;;;;4998473;28;20192;-87
2021/08/31 21:14:41;;;;;;;10.77;6.50;;;12.80;99.90;;;;;;4998378;28;20214;-88
2021/08/31 21:17:07;;;;;;;9.93;6.63;;;12.80;99.90;;;;;;5003436;28;20179;-87
2021/08/31 21:19:33;;;;;;;7.07;5.93;;;12.70;99.90;;;;;;5007209;28;20248;-87
2021/08/31 21:21:59;;;;;;;9.47;7.20;;;12.70;99.90;;;;;;4998374;28;20175;-87
2021/08/31 21:24:25;;;;;;;7.70;6.73;;;12.70;99.90;;;;;;4997910;28;20258;-87
2021/08/31 21:26:50;;;;;;;11.63;7.00;;;12.60;99.90;;;;;;4997372;28;20184;-87
2021/08/31 21:29:16;;;;;;;10.20;7.30;;;12.60;99.90;;;;;;4997264;28;20680;-87
2021/08/31 21:31:42;;;;;;;9.63;7.43;;;12.60;99.90;;;;;;4996918;28;20176;-87
2021/08/31 21:34:07;;;;;;;9.63;6.60;;;12.60;99.90;;;;;;4998494;28;20230;-88
2021/08/31 21:36:33;;;;;;;10.10;6.50;;;12.60;99.90;;;;;;4997100;28;20176;-87
2021/08/31 21:38:59;;;;;;;7.97;6.63;;;12.60;99.90;;;;;;4998488;28;20192;-87
2021/08/31 21:41:24;;;;;;;7.30;6.27;;;12.60;99.90;;;;;;5000463;28;20203;-87
2021/08/31 21:43:50;;;;;;;8.80;6.33;;;12.60;99.90;;;;;;4999260;28;20180;-87
2021/08/31 21:46:15;;;;;;;7.27;6.20;;;12.60;99.90;;;;;;4996951;28;20257;-87
2021/08/31 21:48:41;;;;;;;8.73;6.87;;;12.50;99.90;;;;;;4996975;28;20631;-88
2021/08/31 21:51:07;;;;;;;8.73;6.27;;;12.50;99.90;;;;;;4996112;28;20523;-88
2021/08/31 21:53:33;;;;;;;9.00;6.60;;;12.50;99.90;;;;;;4996828;28;20180;-87
2021/08/31 21:55:58;;;;;;;7.97;7.13;;;12.50;99.90;;;;;;4996158;28;20214;-87
2021/08/31 21:58:24;;;;;;;8.50;7.33;;;12.50;99.90;;;;;;4997548;28;20250;-87
2021/08/31 22:00:50;;;;;;;14.13;8.30;;;12.60;99.90;;;;;;4997445;28;20190;-87
2021/08/31 22:03:16;;;;;;;9.37;6.50;;;12.50;99.90;;;;;;4996018;28;20266;-88
2021/08/31 22:05:41;;;;;;;10.27;6.40;;;12.40;99.90;;;;;;4996761;28;20263;-87
2021/08/31 22:08:07;;;;;;;8.40;7.03;;;12.50;99.90;;;;;;4996699;28;20636;-87
2021/08/31 22:10:33;;;;;;;8.43;6.60;;;12.40;99.90;;;;;;4997684;28;20191;-87
2021/08/31 22:12:58;;;;;;;8.00;6.77;;;12.40;99.90;;;;;;4997774;28;20180;-88
2021/08/31 22:15:24;;;;;;;8.20;6.70;;;12.40;99.90;;;;;;4998122;28;20191;-87
2021/08/31 22:17:50;;;;;;;9.23;6.73;;;12.30;99.90;;;;;;4996296;28;20222;-87
2021/08/31 22:20:15;;;;;;;7.47;6.47;;;12.30;99.90;;;;;;4995452;28;20183;-87
2021/08/31 22:22:41;;;;;;;11.77;7.33;;;12.30;99.90;;;;;;4996572;28;20226;-87
2021/08/31 22:25:07;;;;;;;7.97;6.63;;;12.30;99.90;;;;;;4995851;28;20218;-88
2021/08/31 22:27:35;;;;;;;16.77;6.77;;;12.30;99.90;;;;;;4996719;28;20184;-87
2021/08/31 22:30:01;;;;;;;8.50;7.00;;;12.20;99.90;;;;;;4996833;28;20195;-88
2021/08/31 22:32:27;;;;;;;9.33;6.60;;;12.30;99.90;;;;;;4997409;28;20188;-87
2021/08/31 22:34:53;;;;;;;8.40;7.30;;;12.30;99.90;;;;;;4995847;28;20317;-88
2021/08/31 22:37:18;;;;;;;8.63;6.73;;;12.30;99.90;;;;;;4996436;28;20187;-87
2021/08/31 22:39:44;;;;;;;8.93;6.97;;;12.30;99.90;;;;;;4995659;28;20191;-87
2021/08/31 22:42:10;;;;;;;9.07;7.00;;;12.30;99.90;;;;;;4996419;28;20175;-88
2021/08/31 22:44:35;;;;;;;9.23;7.20;;;12.30;99.90;;;;;;4997912;28;20183;-87
2021/08/31 22:47:01;;;;;;;9.63;6.63;;;12.40;99.90;;;;;;4995766;28;20180;-87
2021/08/31 22:49:27;;;;;;;8.37;6.67;;;12.40;99.90;;;;;;4996411;28;20203;-87
2021/08/31 22:51:52;;;;;;;10.83;7.20;;;12.30;99.90;;;;;;5004865;28;20180;-87
2021/08/31 22:54:18;;;;;;;8.23;7.33;;;12.40;99.90;;;;;;5003427;28;20243;-87
2021/08/31 22:56:45;;;;;;;7.97;6.50;;;12.40;99.90;;;;;;4999969;28;20187;-87
2021/08/31 22:59:11;;;;;;;7.03;6.00;;;12.40;99.90;;;;;;4996922;28;20669;-88
2021/08/31 23:01:37;;;;;;;9.40;6.10;;;12.40;99.90;;;;;;5007936;28;20183;-87
2021/08/31 23:04:02;;;;;;;6.70;6.00;;;12.40;99.90;;;;;;5006090;28;20208;-87
2021/08/31 23:06:28;;;;;;;7.83;6.20;;;12.40;99.90;;;;;;5005328;28;20241;-87
2021/08/31 23:08:54;;;;;;;9.10;6.47;;;12.40;99.90;;;;;;4995246;28;20622;-87
2021/08/31 23:11:19;;;;;;;6.77;5.80;;;12.40;99.90;;;;;;4995507;28;20179;-87
2021/08/31 23:13:45;;;;;;;8.40;6.10;;;12.30;99.90;;;;;;4994991;28;20525;-89
2021/08/31 23:16:11;;;;;;;6.67;5.73;;;12.40;99.90;;;;;;4996122;28;20548;-90
2021/08/31 23:18:36;;;;;;;7.83;6.27;;;12.40;99.90;;;;;;4999021;28;20674;-90